createdAt,value
2022-09-28T00:08:01.436Z,0.9
2022-09-28T00:13:01.586Z,1.2
2022-09-28T00:18:01.520Z,1.1
2022-09-28T00:28:01.565Z,0.9
2022-09-28T00:33:01.916Z,0.8
2022-09-28T00:38:01.693Z,0.9
2022-09-28T00:53:01.658Z,0.9
2022-09-28T00:58:01.206Z,0.7
2022-09-28T01:03:01.509Z,0.8
2022-09-28T01:08:01.629Z,0.6
2022-09-28T01:23:01.548Z,0.6
2022-09-28T01:28:01.593Z,0.3
2022-09-28T01:33:01.513Z,0.6
2022-09-28T01:38:01.536Z,0.5
2022-09-28T01:53:01.822Z,0.4
2022-09-28T02:23:01.662Z,0.2
2022-09-28T02:28:01.522Z,0.3
2022-09-28T02:39:01.543Z,0.6
2022-09-28T02:44:01.507Z,0.8
2022-09-28T02:49:20.088Z,0.6
2022-09-28T02:54:01.627Z,0.5
2022-09-28T02:59:01.227Z,0.9
2022-09-28T03:04:01.509Z,0.7
2022-09-28T03:09:01.511Z,0.8
2022-09-28T03:19:01.537Z,0.7
2022-09-28T03:24:01.536Z,0.6
2022-09-28T03:29:01.530Z,0.9
2022-09-28T03:44:01.542Z,1.1
2022-09-28T03:49:01.686Z,1.2
2022-09-28T03:54:01.505Z,1.0
2022-09-28T03:59:01.504Z,0.8
2022-09-28T04:09:02.414Z,0.9
2022-09-28T04:19:01.405Z,1.1
2022-09-28T04:24:01.518Z,2.1
2022-09-28T04:29:09.380Z,2.2
2022-09-28T04:34:01.510Z,2.6
2022-09-28T04:44:01.630Z,2.4
2022-09-28T04:49:01.558Z,1.7
2022-09-28T04:54:01.715Z,2.0
2022-09-28T04:59:01.517Z,1.7
2022-09-28T05:04:01.514Z,1.9
2022-09-28T05:14:01.596Z,2.1
2022-09-28T05:19:01.615Z,1.8
2022-09-28T05:24:01.531Z,2.8
2022-09-28T05:29:01.508Z,4.8
2022-09-28T05:34:01.563Z,8.3
2022-09-28T05:39:01.604Z,9.1
2022-09-28T05:44:01.511Z,10.3
2022-09-28T05:49:01.518Z,10.4
2022-09-28T05:54:05.586Z,8.7
2022-09-28T05:59:01.512Z,5.7
2022-09-28T06:04:01.501Z,5.3
2022-09-28T06:09:01.503Z,4.7
2022-09-28T06:14:01.536Z,4.4
2022-09-28T06:19:01.505Z,4.2
2022-09-28T06:24:01.521Z,4.3
2022-09-28T06:29:01.576Z,4.7
2022-09-28T06:39:01.541Z,4.5
2022-09-28T06:44:01.542Z,4.7
2022-09-28T06:49:01.539Z,4.8
2022-09-28T06:54:01.519Z,5.6
2022-09-28T06:59:01.542Z,6.6
2022-09-28T07:04:01.502Z,8.6
2022-09-28T07:09:16.533Z,11.2
2022-09-28T07:14:01.541Z,13.0
2022-09-28T07:19:01.532Z,13.9
2022-09-28T07:24:01.508Z,15.6
2022-09-28T07:29:01.528Z,15.8
2022-09-28T07:34:01.602Z,15.5
2022-09-28T07:39:01.554Z,16.6
2022-09-28T07:44:01.513Z,17.2
2022-09-28T07:49:01.516Z,17.3
2022-09-28T07:54:01.516Z,18.6
2022-09-28T07:59:01.558Z,19.4
2022-09-28T08:04:01.517Z,19.5
2022-09-28T08:09:01.583Z,21.1
2022-09-28T08:14:01.499Z,21.4
2022-09-28T08:19:01.589Z,21.8
2022-09-28T08:24:01.605Z,21.4
2022-09-28T08:29:01.505Z,21.2
2022-09-28T08:34:01.503Z,22.0
2022-09-28T08:39:01.530Z,22.3
2022-09-28T08:44:01.580Z,22.0
2022-09-28T08:49:20.951Z,22.6
2022-09-28T08:54:01.712Z,24.2
2022-09-28T08:59:01.537Z,23.1
2022-09-28T09:04:01.551Z,23.3
2022-09-28T09:09:01.549Z,20.2
2022-09-28T09:14:01.517Z,16.7
2022-09-28T09:19:01.640Z,12.1
2022-09-28T09:24:01.636Z,8.0
2022-09-28T09:29:01.514Z,3.9
2022-09-28T09:34:01.506Z,2.5
2022-09-28T09:39:01.635Z,2.0
2022-09-28T09:44:01.511Z,1.5
2022-09-28T09:49:01.404Z,1.8
2022-09-28T09:54:01.713Z,2.0
2022-09-28T09:59:01.431Z,3.0
2022-09-28T10:04:04.125Z,3.4
2022-09-28T10:09:01.527Z,3.5
2022-09-28T10:14:02.764Z,3.3
2022-09-28T10:19:01.932Z,3.2
2022-09-28T10:24:01.516Z,2.6
2022-09-28T10:29:01.818Z,2.2
2022-09-28T10:34:01.416Z,2.4
2022-09-28T10:44:01.543Z,2.2
2022-09-28T10:49:01.537Z,2.6
2022-09-28T10:54:01.515Z,2.7
2022-09-28T10:59:17.272Z,2.6
2022-09-28T11:04:01.509Z,2.8
2022-09-28T11:09:01.529Z,2.9
2022-09-28T11:24:01.627Z,2.9
2022-09-28T11:29:01.517Z,3.0
2022-09-28T11:34:01.505Z,2.9
2022-09-28T11:44:01.537Z,4.1
2022-09-28T11:49:01.438Z,4.4
2022-09-28T11:54:01.511Z,4.2
2022-09-28T11:59:01.515Z,4.8
2022-09-28T12:04:01.557Z,4.9
2022-09-28T12:09:01.519Z,4.3
2022-09-28T12:14:01.516Z,4.6
2022-09-28T12:19:01.604Z,4.8
2022-09-28T12:24:06.608Z,4.4
2022-09-28T12:29:01.562Z,4.2
2022-09-28T12:34:01.408Z,4.0
2022-09-28T12:39:18.875Z,3.8
2022-09-28T12:44:01.630Z,3.9
2022-09-28T13:10:15.142Z,1.0
2022-09-28T13:15:11.769Z,1.8
2022-09-28T13:20:01.698Z,1.5
2022-09-28T13:25:01.528Z,1.4
2022-09-28T13:30:04.409Z,1.1
2022-09-28T13:36:01.541Z,1.3
2022-09-28T13:46:01.594Z,1.1
2022-09-28T13:51:01.425Z,0.9
2022-09-28T13:56:01.383Z,1.1
2022-09-28T14:01:01.358Z,1.0
2022-09-28T14:06:06.416Z,0.8
2022-09-28T14:11:16.916Z,1.3
2022-09-28T14:16:01.291Z,1.6
2022-09-28T14:21:01.144Z,1.7
2022-09-28T14:31:01.312Z,1.8
2022-09-28T14:36:01.198Z,1.6
2022-09-28T14:41:01.254Z,1.4
2022-09-28T14:46:01.112Z,1.6
2022-09-28T14:51:17.177Z,2.1
2022-09-28T14:56:01.283Z,1.9
2022-09-28T15:01:01.228Z,1.8
2022-09-28T15:06:01.613Z,1.7
2022-09-28T15:11:01.494Z,1.3
2022-09-28T15:16:05.754Z,0.5
2022-09-28T15:21:01.570Z,0.4
2022-09-28T15:36:01.644Z,0.2
2022-09-28T15:41:01.620Z,0.3
2022-09-28T15:46:01.313Z,0.7
2022-09-28T15:51:01.762Z,1.1
2022-09-28T16:01:01.638Z,1.4
2022-09-28T16:06:06.556Z,1.5
2022-09-28T16:11:01.568Z,1.2
2022-09-28T16:16:02.411Z,1.1
2022-09-28T16:21:01.616Z,1.5
2022-09-28T16:26:01.539Z,1.7
2022-09-28T16:31:01.462Z,1.5
2022-09-28T16:36:01.559Z,2.1
2022-09-28T16:41:01.630Z,2.9
2022-09-28T16:46:05.073Z,3.3
2022-09-28T16:51:01.544Z,3.9
2022-09-28T16:56:01.524Z,5.1
2022-09-28T17:01:01.589Z,5.9
2022-09-28T17:06:01.638Z,5.8
2022-09-28T17:11:14.715Z,6.2
2022-09-28T17:16:01.661Z,6.0
2022-09-28T17:21:01.541Z,5.9
2022-09-28T17:26:01.601Z,4.6
2022-09-28T17:31:01.534Z,4.9
2022-09-28T17:36:02.487Z,5.3
2022-09-28T17:41:02.562Z,5.5
2022-09-28T17:46:01.548Z,5.8
2022-09-28T17:51:02.125Z,7.8
2022-09-28T17:56:01.962Z,7.7
2022-09-28T18:06:03.891Z,8.0
2022-09-28T18:11:06.575Z,9.1
2022-09-28T18:16:01.555Z,10.2
2022-09-28T18:21:01.519Z,11.6
2022-09-28T18:26:01.527Z,12.4
2022-09-28T18:31:01.536Z,13.9
2022-09-28T18:36:01.518Z,13.6
2022-09-28T18:41:01.560Z,13.4
2022-09-28T18:51:01.655Z,15.6
2022-09-28T18:56:01.504Z,15.5
2022-09-28T19:01:25.398Z,16.0
2022-09-28T19:06:01.698Z,16.3
2022-09-28T19:11:01.471Z,18.0
2022-09-28T19:16:01.585Z,17.4
2022-09-28T19:21:04.472Z,18.8
2022-09-28T19:26:01.506Z,19.8
2022-09-28T19:36:01.521Z,21.5
2022-09-28T19:41:07.354Z,22.9
2022-09-28T19:46:03.712Z,24.4
2022-09-28T19:51:03.312Z,25.2
2022-09-28T19:56:01.515Z,25.0
2022-09-28T20:01:05.684Z,23.9
2022-09-28T20:06:01.587Z,22.7
2022-09-28T20:11:01.543Z,20.4
2022-09-28T20:16:01.547Z,19.7
2022-09-28T20:21:01.518Z,20.2
2022-09-28T20:26:06.528Z,20.4
2022-09-28T20:31:01.553Z,20.0
2022-09-28T20:36:01.503Z,19.5
2022-09-28T20:41:02.303Z,20.7
2022-09-28T20:46:01.572Z,19.7
2022-09-28T20:51:03.216Z,19.0
2022-09-28T20:56:01.511Z,19.8
2022-09-28T21:01:01.511Z,20.1
2022-09-28T21:06:01.545Z,19.1
2022-09-28T21:11:01.504Z,18.2
2022-09-28T21:16:01.592Z,18.5
2022-09-28T21:21:01.538Z,17.0
2022-09-28T21:26:01.532Z,16.9
2022-09-28T21:31:01.622Z,15.9
2022-09-28T21:36:01.614Z,16.3
2022-09-28T21:41:01.581Z,15.4
2022-09-28T21:46:01.568Z,14.9
2022-09-28T21:51:01.513Z,14.6
2022-09-28T21:56:06.511Z,14.0
2022-09-28T22:01:01.545Z,13.2
2022-09-28T22:06:01.533Z,12.5
2022-09-28T22:11:01.506Z,12.4
2022-09-28T22:21:01.705Z,12.2
2022-09-28T22:26:03.979Z,13.0
2022-09-28T22:31:01.572Z,13.2
2022-09-28T22:36:01.975Z,13.0
2022-09-28T22:41:01.507Z,12.8
2022-09-28T22:46:01.573Z,13.0
2022-09-28T22:51:01.696Z,11.7
2022-09-28T22:56:01.564Z,10.4
2022-09-28T23:06:01.537Z,9.9
2022-09-28T23:11:01.412Z,9.5
2022-09-28T23:16:01.562Z,9.3
2022-09-28T23:21:01.520Z,10.8
2022-09-28T23:26:11.437Z,10.7
2022-09-28T23:31:01.537Z,10.8
2022-09-28T23:36:01.407Z,11.1
2022-09-28T23:41:01.583Z,10.5
2022-09-28T23:46:01.635Z,10.0
2022-09-28T23:51:01.505Z,9.7
2022-09-28T23:56:01.625Z,9.9
